createdAt,value
2022-11-09T00:01:40.429Z,98568.59
2022-11-09T00:04:07.847Z,98554.28
2022-11-09T00:06:35.534Z,98555.41
2022-11-09T00:09:07.706Z,98539.81
2022-11-09T00:11:35.119Z,98528.75
2022-11-09T00:14:01.480Z,98534.72
2022-11-09T00:16:27.956Z,98537.41
2022-11-09T00:18:55.854Z,98527.66
2022-11-09T00:21:24.463Z,98534.25
2022-11-09T00:23:51.419Z,98533.03
2022-11-09T00:26:19.560Z,98528.28
2022-11-09T00:28:46.116Z,98531.00
2022-11-09T00:31:18.809Z,98518.66
2022-11-09T00:33:52.856Z,98528.13
2022-11-09T00:36:20.933Z,98536.94
2022-11-09T00:38:52.954Z,98534.44
2022-11-09T00:41:19.686Z,98529.34
2022-11-09T00:43:46.629Z,98533.03
2022-11-09T00:46:13.502Z,98533.38
2022-11-09T00:48:40.117Z,98536.25
2022-11-09T00:51:09.876Z,98547.50
2022-11-09T00:53:36.263Z,98532.84
2022-11-09T00:56:13.945Z,98544.81
2022-11-09T00:58:41.027Z,98539.13
2022-11-09T01:01:11.210Z,98548.25
2022-11-09T01:03:38.384Z,98548.91
2022-11-09T01:06:05.753Z,98551.94
2022-11-09T01:08:35.688Z,98551.13
2022-11-09T01:11:09.738Z,98552.91
2022-11-09T01:13:37.475Z,98565.72
2022-11-09T01:16:12.720Z,98569.97
2022-11-09T01:18:40.301Z,98574.38
2022-11-09T01:21:09.493Z,98583.63
2022-11-09T01:23:36.874Z,98582.25
2022-11-09T01:26:06.225Z,98577.53
2022-11-09T01:28:32.764Z,98589.00
2022-11-09T01:31:07.530Z,98582.50
2022-11-09T01:33:34.685Z,98591.41
2022-11-09T01:36:06.823Z,98593.13
2022-11-09T01:38:33.633Z,98596.19
2022-11-09T01:40:59.974Z,98593.75
2022-11-09T01:43:26.312Z,98596.78
2022-11-09T01:46:12.721Z,98593.44
2022-11-09T01:48:46.210Z,98606.56
2022-11-09T01:51:41.660Z,98604.69
2022-11-09T01:54:31.721Z,98595.34
2022-11-09T01:57:04.050Z,98591.22
2022-11-09T01:59:36.442Z,98589.47
2022-11-09T02:02:04.629Z,98588.09
2022-11-09T02:04:38.285Z,98587.56
2022-11-09T02:07:06.080Z,98590.19
2022-11-09T02:09:49.294Z,98581.63
2022-11-09T02:12:18.086Z,98581.75
2022-11-09T02:14:47.190Z,98577.19
2022-11-09T02:17:13.710Z,98577.69
2022-11-09T02:19:40.106Z,98583.38
2022-11-09T02:22:06.764Z,98583.06
2022-11-09T02:24:33.761Z,98575.47
2022-11-09T02:27:00.822Z,98576.31
2022-11-09T02:29:33.446Z,98581.72
2022-11-09T02:32:03.547Z,98567.38
2022-11-09T02:34:30.127Z,98567.38
2022-11-09T02:36:56.539Z,98581.03
2022-11-09T02:39:26.230Z,98580.38
2022-11-09T02:42:02.746Z,98565.38
2022-11-09T02:44:32.664Z,98578.53
2022-11-09T02:46:59.133Z,98576.38
2022-11-09T02:49:25.492Z,98580.06
2022-11-09T02:51:51.818Z,98569.41
2022-11-09T02:54:18.310Z,98572.94
2022-11-09T02:56:44.686Z,98565.94
2022-11-09T02:59:11.025Z,98560.06
2022-11-09T03:01:37.514Z,98560.56
2022-11-09T03:04:03.971Z,98555.59
2022-11-09T03:06:36.262Z,98554.22
2022-11-09T03:09:11.758Z,98556.59
2022-11-09T03:11:39.798Z,98559.94
2022-11-09T03:14:06.874Z,98557.25
2022-11-09T03:16:33.323Z,98558.78
2022-11-09T03:18:59.905Z,98567.84
2022-11-09T03:21:26.273Z,98570.06
2022-11-09T03:23:54.021Z,98573.22
2022-11-09T03:26:21.186Z,98568.69
2022-11-09T03:28:47.819Z,98573.44
2022-11-09T03:31:23.109Z,98578.81
2022-11-09T03:33:49.504Z,98584.75
2022-11-09T03:36:16.069Z,98586.72
2022-11-09T03:38:42.397Z,98592.13
2022-11-09T03:41:08.737Z,98600.22
2022-11-09T03:43:35.093Z,98590.81
2022-11-09T03:46:01.454Z,98596.19
2022-11-09T03:48:27.876Z,98593.47
2022-11-09T03:50:54.219Z,98593.63
2022-11-09T03:53:20.876Z,98599.72
2022-11-09T03:55:47.554Z,98597.38
2022-11-09T03:58:13.932Z,98588.25
2022-11-09T04:00:40.473Z,98585.91
2022-11-09T04:03:07.165Z,98589.41
2022-11-09T04:05:33.537Z,98587.91
2022-11-09T04:08:00.002Z,98579.22
2022-11-09T04:10:26.703Z,98580.53
2022-11-09T04:12:53.518Z,98576.13
2022-11-09T04:15:20.150Z,98582.25
2022-11-09T04:17:54.941Z,98584.59
2022-11-09T04:20:21.300Z,98585.06
2022-11-09T04:23:04.575Z,98596.34
2022-11-09T04:25:36.299Z,98587.28
2022-11-09T04:28:04.244Z,98591.28
2022-11-09T04:30:33.039Z,98592.97
2022-11-09T04:33:00.758Z,98590.09
2022-11-09T04:35:28.575Z,98599.38
2022-11-09T04:38:09.753Z,98594.63
2022-11-09T04:40:36.439Z,98592.44
2022-11-09T04:43:04.762Z,98590.81
2022-11-09T04:45:33.854Z,98588.56
2022-11-09T04:48:02.118Z,98592.75
2022-11-09T04:50:29.545Z,98582.28
2022-11-09T04:53:13.476Z,98579.94
2022-11-09T04:55:40.432Z,98582.63
2022-11-09T04:58:08.048Z,98582.81
2022-11-09T05:00:35.072Z,98588.53
2022-11-09T05:03:03.120Z,98576.06
2022-11-09T05:05:30.169Z,98579.41
2022-11-09T05:07:56.576Z,98577.78
2022-11-09T05:10:22.953Z,98583.00
2022-11-09T05:12:49.374Z,98582.28
2022-11-09T05:15:15.851Z,98587.31
2022-11-09T05:17:42.214Z,98580.78
2022-11-09T05:20:09.133Z,98587.84
2022-11-09T05:22:59.001Z,98588.53
2022-11-09T05:25:25.448Z,98588.13
2022-11-09T05:27:52.594Z,98589.19
2022-11-09T05:30:19.155Z,98583.97
2022-11-09T05:32:45.498Z,98587.66
2022-11-09T05:35:12.157Z,98593.22
2022-11-09T05:37:39.568Z,98588.53
2022-11-09T05:40:08.358Z,98588.78
2022-11-09T05:42:38.383Z,98589.19
2022-11-09T05:45:35.483Z,98581.28
2022-11-09T05:47:51.983Z,98585.41
2022-11-09T05:50:18.639Z,98588.59
2022-11-09T05:52:45.087Z,98581.53
2022-11-09T05:55:11.545Z,98583.19
2022-11-09T05:57:37.951Z,98586.78
2022-11-09T06:00:10.709Z,98587.13
2022-11-09T06:02:37.508Z,98592.88
2022-11-09T06:05:04.090Z,98587.78
2022-11-09T06:07:30.515Z,98595.56
2022-11-09T06:09:56.877Z,98598.75
2022-11-09T06:12:23.350Z,98599.56
2022-11-09T06:14:49.712Z,98603.44
2022-11-09T06:17:16.214Z,98593.00
2022-11-09T06:19:42.590Z,98599.56
2022-11-09T06:22:09.260Z,98604.09
2022-11-09T06:24:35.704Z,98607.25
2022-11-09T06:27:02.158Z,98608.94
2022-11-09T06:29:28.491Z,98609.31
2022-11-09T06:31:55.326Z,98615.66
2022-11-09T06:34:21.781Z,98615.03
2022-11-09T06:36:48.124Z,98616.72
2022-11-09T06:39:14.471Z,98612.38
2022-11-09T06:41:44.694Z,98617.63
2022-11-09T06:44:13.703Z,98624.53
2022-11-09T06:46:40.124Z,98631.28
2022-11-09T06:49:06.638Z,98616.84
2022-11-09T06:51:33.028Z,98623.75
2022-11-09T06:53:59.396Z,98637.41
2022-11-09T06:56:25.871Z,98646.22
2022-11-09T06:58:52.259Z,98646.88
2022-11-09T07:01:22.824Z,98650.06
2022-11-09T07:03:49.235Z,98652.09
2022-11-09T07:06:15.690Z,98657.31
2022-11-09T07:08:42.132Z,98650.56
2022-11-09T07:11:12.410Z,98641.16
2022-11-09T07:13:39.851Z,98657.34
2022-11-09T07:16:07.174Z,98648.59
2022-11-09T07:18:33.934Z,98651.13
2022-11-09T07:21:00.353Z,98650.63
2022-11-09T07:23:26.770Z,98653.97
2022-11-09T07:25:53.370Z,98659.69
2022-11-09T07:28:19.800Z,98656.16
2022-11-09T07:30:46.230Z,98658.03
2022-11-09T07:33:22.582Z,98652.50
2022-11-09T07:35:49.425Z,98664.44
2022-11-09T07:38:16.062Z,98667.13
2022-11-09T07:40:43.844Z,98667.94
2022-11-09T07:43:11.845Z,98668.44
2022-11-09T07:45:38.632Z,98671.66
2022-11-09T07:48:08.183Z,98663.38
2022-11-09T07:50:35.675Z,98661.53
2022-11-09T07:53:02.970Z,98673.31
2022-11-09T07:55:30.199Z,98666.06
2022-11-09T07:58:04.921Z,98673.78
2022-11-09T08:00:33.125Z,98677.97
2022-11-09T08:02:59.776Z,98677.63
2022-11-09T08:05:26.675Z,98675.44
2022-11-09T08:08:02.078Z,98678.81
2022-11-09T08:10:30.133Z,98682.63
2022-11-09T08:13:01.260Z,98684.84
2022-11-09T08:15:28.654Z,98688.88
2022-11-09T08:17:59.367Z,98685.00
2022-11-09T08:20:25.783Z,98694.25
2022-11-09T08:22:52.121Z,98692.06
2022-11-09T08:25:18.658Z,98686.81
2022-11-09T08:27:45.000Z,98688.84
2022-11-09T08:30:17.100Z,98686.47
2022-11-09T08:32:44.927Z,98694.53
2022-11-09T08:35:17.362Z,98694.28
2022-11-09T08:37:46.783Z,98690.94
2022-11-09T08:40:15.974Z,98692.81
2022-11-09T08:42:42.494Z,98692.75
2022-11-09T08:45:10.091Z,98704.22
2022-11-09T08:47:36.728Z,98704.84
2022-11-09T08:50:04.462Z,98716.13
2022-11-09T08:52:31.017Z,98721.66
2022-11-09T08:54:57.392Z,98705.41
2022-11-09T08:57:24.485Z,98707.69
2022-11-09T08:59:50.873Z,98702.63
2022-11-09T09:02:17.379Z,98704.91
2022-11-09T09:04:43.867Z,98696.56
2022-11-09T09:07:10.369Z,98680.75
2022-11-09T09:09:38.132Z,98695.44
2022-11-09T09:12:06.814Z,98694.63
2022-11-09T09:14:33.673Z,98695.50
2022-11-09T09:17:00.923Z,98693.94
2022-11-09T09:19:28.178Z,98689.47
2022-11-09T09:21:54.637Z,98683.06
2022-11-09T09:24:21.250Z,98683.72
2022-11-09T09:26:47.654Z,98680.66
2022-11-09T09:29:14.262Z,98682.03
2022-11-09T09:31:41.168Z,98676.63
2022-11-09T09:34:07.930Z,98670.16
2022-11-09T09:36:35.484Z,98673.88
2022-11-09T09:39:02.102Z,98669.13
2022-11-09T09:41:34.565Z,98674.53
2022-11-09T09:44:36.910Z,98679.28
2022-11-09T09:47:06.382Z,98688.75
2022-11-09T09:49:36.908Z,98686.41
2022-11-09T09:52:29.320Z,98684.56
2022-11-09T09:55:24.332Z,98686.34
2022-11-09T09:57:56.986Z,98684.78
2022-11-09T10:00:26.202Z,98686.66
2022-11-09T10:02:53.312Z,98686.41
2022-11-09T10:05:28.016Z,98690.97
2022-11-09T10:08:03.694Z,98689.75
2022-11-09T10:10:48.175Z,98681.47
2022-11-09T10:13:29.869Z,98690.78
2022-11-09T10:16:09.955Z,98694.97
2022-11-09T10:19:13.900Z,98686.88
2022-11-09T10:22:11.104Z,98690.41
2022-11-09T10:25:20.829Z,98689.56
2022-11-09T10:27:49.785Z,98704.00
2022-11-09T10:30:19.135Z,98695.63
2022-11-09T10:32:50.270Z,98709.97
2022-11-09T10:35:29.053Z,98706.44
2022-11-09T10:37:55.471Z,98705.50
2022-11-09T10:40:25.242Z,98707.91
2022-11-09T10:43:00.406Z,98710.16
2022-11-09T10:45:31.870Z,98708.00
2022-11-09T10:47:58.836Z,98705.75
2022-11-09T10:50:25.153Z,98713.69
2022-11-09T10:52:51.718Z,98726.44
2022-11-09T10:55:27.013Z,98724.03
2022-11-09T10:57:57.567Z,98731.78
2022-11-09T11:00:24.464Z,98735.03
2022-11-09T11:02:53.092Z,98730.56
2022-11-09T11:05:19.433Z,98726.63
2022-11-09T11:07:46.450Z,98733.06
2022-11-09T11:10:15.872Z,98734.94
2022-11-09T11:12:43.629Z,98732.78
2022-11-09T11:15:24.800Z,98733.16
2022-11-09T11:18:00.195Z,98741.78
2022-11-09T11:20:32.185Z,98744.69
2022-11-09T11:23:12.775Z,98741.31
2022-11-09T11:26:25.261Z,98749.25
2022-11-09T11:29:10.907Z,98744.78
2022-11-09T11:31:37.298Z,98742.84
2022-11-09T11:34:16.387Z,98743.88
2022-11-09T11:37:05.143Z,98739.59
2022-11-09T11:39:58.280Z,98741.47
2022-11-09T11:42:32.673Z,98739.91
2022-11-09T11:48:04.072Z,98730.41
2022-11-09T11:50:57.173Z,98732.56
2022-11-09T11:54:14.089Z,98735.81
2022-11-09T11:57:01.954Z,98737.84
2022-11-09T11:59:53.252Z,98730.47
2022-11-09T12:02:41.190Z,98736.56
2022-11-09T12:05:35.500Z,98736.94
2022-11-09T12:08:22.037Z,98731.53
2022-11-09T12:11:11.829Z,98737.56
2022-11-09T12:13:44.571Z,98733.88
2022-11-09T12:16:39.718Z,98739.72
2022-11-09T12:19:26.640Z,98740.56
2022-11-09T12:22:29.157Z,98729.84
2022-11-09T12:25:22.243Z,98730.88
2022-11-09T12:28:12.391Z,98730.97
2022-11-09T12:31:09.800Z,98738.75
2022-11-09T12:33:53.490Z,98735.78
2022-11-09T12:36:26.676Z,98743.13
2022-11-09T12:38:55.931Z,98747.13
2022-11-09T12:41:27.549Z,98741.53
2022-11-09T12:44:17.136Z,98742.06
2022-11-09T12:46:50.905Z,98743.59
2022-11-09T12:49:35.491Z,98742.56
2022-11-09T12:52:02.921Z,98736.97
2022-11-09T12:54:29.434Z,98746.22
2022-11-09T12:56:59.925Z,98746.75
2022-11-09T12:59:29.027Z,98740.13
2022-11-09T13:01:58.410Z,98738.28
2022-11-09T13:04:25.758Z,98740.25
2022-11-09T13:07:15.380Z,98738.94
2022-11-09T13:09:45.228Z,98740.81
2022-11-09T13:12:19.974Z,98749.19
2022-11-09T13:14:46.788Z,98748.22
2022-11-09T13:17:28.484Z,98748.91
2022-11-09T13:19:56.731Z,98757.38
2022-11-09T13:22:23.058Z,98752.06
2022-11-09T13:24:55.619Z,98761.94
2022-11-09T13:27:47.942Z,98747.41
2022-11-09T13:30:23.575Z,98743.47
2022-11-09T13:33:09.484Z,98754.66
2022-11-09T13:35:41.595Z,98754.53
2022-11-09T13:38:16.470Z,98752.59
2022-11-09T13:40:44.195Z,98757.34
2022-11-09T13:43:10.498Z,98769.50
2022-11-09T13:45:37.046Z,98760.91
2022-11-09T13:48:05.466Z,98767.31
2022-11-09T13:50:34.334Z,98770.53
2022-11-09T13:53:01.921Z,98762.34
2022-11-09T13:55:42.275Z,98769.25
2022-11-09T13:58:25.639Z,98768.41
2022-11-09T14:00:52.031Z,98765.16
2022-11-09T14:03:18.616Z,98773.34
2022-11-09T14:05:48.595Z,98778.13
2022-11-09T14:08:27.784Z,98772.00
2022-11-09T14:11:18.963Z,98780.75
2022-11-09T14:13:56.871Z,98776.63
2022-11-09T14:16:50.950Z,98786.03
2022-11-09T14:19:30.650Z,98780.75
2022-11-09T14:21:57.051Z,98782.13
2022-11-09T14:24:29.569Z,98781.81
2022-11-09T14:27:17.648Z,98783.94
2022-11-09T14:29:53.246Z,98789.13
2022-11-09T14:32:35.451Z,98779.41
2022-11-09T14:35:33.965Z,98784.31
2022-11-09T14:38:13.927Z,98795.66
2022-11-09T14:40:45.757Z,98791.81
2022-11-09T14:43:43.011Z,98797.66
2022-11-09T14:46:21.512Z,98805.19
2022-11-09T14:48:57.950Z,98797.13
2022-11-09T14:51:31.925Z,98808.00
2022-11-09T14:54:00.343Z,98802.28
2022-11-09T14:56:27.175Z,98799.63
2022-11-09T14:58:55.054Z,98812.31
2022-11-09T15:01:26.313Z,98810.63
2022-11-09T15:04:22.836Z,98814.91
2022-11-09T15:06:56.029Z,98812.03
2022-11-09T15:09:31.278Z,98824.03
2022-11-09T15:11:57.585Z,98832.81
2022-11-09T15:14:32.099Z,98834.50
2022-11-09T15:17:05.932Z,98828.81
2022-11-09T15:19:54.549Z,98841.94
2022-11-09T15:22:42.734Z,98842.28
2022-11-09T15:25:26.385Z,98840.63
2022-11-09T15:28:14.097Z,98855.78
2022-11-09T15:30:45.651Z,98844.84
2022-11-09T15:33:18.999Z,98847.38
2022-11-09T15:36:20.781Z,98854.97
2022-11-09T15:38:56.320Z,98847.38
2022-11-09T15:41:24.395Z,98860.00
2022-11-09T15:43:50.787Z,98855.47
2022-11-09T15:46:26.596Z,98855.81
2022-11-09T15:48:53.012Z,98863.53
2022-11-09T15:51:19.947Z,98867.56
2022-11-09T15:53:46.359Z,98864.72
2022-11-09T15:56:18.736Z,98862.72
2022-11-09T15:58:46.993Z,98857.16
2022-11-09T16:01:13.420Z,98863.88
2022-11-09T16:03:39.814Z,98871.75
2022-11-09T16:06:09.966Z,98871.25
2022-11-09T16:08:36.334Z,98874.78
2022-11-09T16:11:04.968Z,98888.72
2022-11-09T16:13:31.490Z,98892.03
2022-11-09T16:16:03.348Z,98894.88
2022-11-09T16:18:29.927Z,98900.72
2022-11-09T16:20:56.598Z,98899.94
2022-11-09T16:23:23.031Z,98899.22
2022-11-09T16:25:49.557Z,98910.81
2022-11-09T16:28:18.873Z,98917.69
2022-11-09T16:30:46.840Z,98927.44
2022-11-09T16:33:13.954Z,98925.28
2022-11-09T16:35:40.533Z,98928.28
2022-11-09T16:38:07.087Z,98945.13
2022-11-09T16:40:33.580Z,98949.47
2022-11-09T16:43:00.407Z,98956.13
2022-11-09T16:45:33.018Z,98959.25
2022-11-09T16:48:03.847Z,98960.91
2022-11-09T16:50:30.496Z,98953.41
2022-11-09T16:52:56.876Z,98957.56
2022-11-09T16:55:23.421Z,98961.38
2022-11-09T16:57:49.810Z,98964.31
2022-11-09T17:00:18.463Z,98974.84
2022-11-09T17:02:44.978Z,98979.84
2022-11-09T17:05:11.441Z,98989.69
2022-11-09T17:07:42.923Z,98985.88
2022-11-09T17:10:10.984Z,98991.88
2022-11-09T17:12:37.427Z,99007.06
2022-11-09T17:15:04.167Z,99012.50
2022-11-09T17:17:30.603Z,99013.50
2022-11-09T17:19:56.949Z,99031.06
2022-11-09T17:22:23.537Z,99039.16
2022-11-09T17:24:49.932Z,99043.75
2022-11-09T17:27:16.633Z,99054.38
2022-11-09T17:29:43.014Z,99045.63
2022-11-09T17:32:09.869Z,99048.16
2022-11-09T17:34:36.326Z,99055.06
2022-11-09T17:37:05.255Z,99060.59
2022-11-09T17:39:32.745Z,99075.88
2022-11-09T17:41:59.527Z,99072.25
2022-11-09T17:44:25.916Z,99079.63
2022-11-09T17:46:52.621Z,99083.63
2022-11-09T17:49:18.991Z,99084.75
2022-11-09T17:51:45.444Z,99088.88
2022-11-09T17:54:12.090Z,99091.28
2022-11-09T17:56:38.549Z,99090.88
2022-11-09T17:59:05.496Z,99092.41
2022-11-09T18:01:37.779Z,99098.34
2022-11-09T18:04:08.980Z,99101.16
2022-11-09T18:06:35.635Z,99104.00
2022-11-09T18:11:48.761Z,99109.63
2022-11-09T18:14:15.977Z,99104.81
2022-11-09T18:16:42.531Z,99117.47
2022-11-09T18:19:09.013Z,99116.59
2022-11-09T18:21:35.488Z,99118.53
2022-11-09T18:24:02.243Z,99127.59
2022-11-09T18:26:29.204Z,99132.09
2022-11-09T18:28:56.853Z,99134.91
2022-11-09T18:31:23.525Z,99143.41
2022-11-09T18:33:50.810Z,99141.47
2022-11-09T18:36:20.991Z,99150.19
2022-11-09T18:38:47.706Z,99146.81
2022-11-09T18:41:20.098Z,99153.84
2022-11-09T18:43:47.424Z,99157.16
2022-11-09T18:46:16.277Z,99156.44
2022-11-09T18:48:43.114Z,99159.34
2022-11-09T18:51:10.841Z,99162.13
2022-11-09T18:53:39.885Z,99166.84
2022-11-09T18:56:12.018Z,99178.75
2022-11-09T18:58:38.662Z,99174.59
2022-11-09T19:01:07.011Z,99184.19
2022-11-09T19:03:34.220Z,99178.63
2022-11-09T19:06:06.201Z,99170.25
2022-11-09T19:08:51.415Z,99167.81
2022-11-09T19:11:17.954Z,99176.72
2022-11-09T19:13:44.453Z,99189.91
2022-11-09T19:16:13.145Z,99184.31
2022-11-09T19:18:39.694Z,99186.38
2022-11-09T19:21:26.994Z,99189.22
2022-11-09T19:23:53.818Z,99189.91
2022-11-09T19:26:21.941Z,99186.09
2022-11-09T19:28:48.518Z,99179.34
2022-11-09T19:31:16.563Z,99185.84
2022-11-09T19:33:43.046Z,99201.19
2022-11-09T19:38:57.457Z,99201.00
2022-11-09T19:41:25.192Z,99199.59
2022-11-09T19:43:54.351Z,99207.56
2022-11-09T19:46:20.884Z,99211.81
2022-11-09T19:48:48.167Z,99211.31
2022-11-09T19:51:16.541Z,99215.31
2022-11-09T19:53:56.698Z,99213.84
2022-11-09T19:56:25.585Z,99219.84
2022-11-09T19:58:55.723Z,99231.13
2022-11-09T20:01:22.883Z,99231.56
2022-11-09T20:03:50.888Z,99235.09
2022-11-09T20:06:18.343Z,99242.03
2022-11-09T20:08:44.949Z,99241.03
2022-11-09T20:11:36.840Z,99247.84
2022-11-09T20:14:04.573Z,99256.00
2022-11-09T20:16:32.318Z,99254.56
2022-11-09T20:19:00.171Z,99261.66
2022-11-09T20:21:26.662Z,99259.66
2022-11-09T20:23:53.645Z,99271.53
2022-11-09T20:26:20.284Z,99278.31
2022-11-09T20:28:46.704Z,99288.19
2022-11-09T20:31:21.535Z,99284.09
2022-11-09T20:33:48.939Z,99286.38
2022-11-09T20:36:16.217Z,99300.06
2022-11-09T20:38:42.633Z,99298.06
2022-11-09T20:41:11.207Z,99300.91
2022-11-09T20:43:38.317Z,99300.91
2022-11-09T20:46:08.862Z,99312.75
2022-11-09T20:48:53.457Z,99316.97
2022-11-09T20:51:21.647Z,99317.56
2022-11-09T20:53:49.617Z,99322.94
2022-11-09T20:56:17.011Z,99321.50
2022-11-09T20:58:43.421Z,99322.09
2022-11-09T21:01:12.898Z,99327.47
2022-11-09T21:03:39.469Z,99321.81
2022-11-09T21:06:07.177Z,99334.13
2022-11-09T21:08:34.163Z,99330.56
2022-11-09T21:11:01.825Z,99342.72
2022-11-09T21:13:28.799Z,99342.41
2022-11-09T21:15:55.461Z,99344.81
2022-11-09T21:18:22.451Z,99341.16
2022-11-09T21:20:49.276Z,99343.56
2022-11-09T21:23:15.692Z,99351.31
2022-11-09T21:26:02.338Z,99353.28
2022-11-09T21:28:47.933Z,99358.22
2022-11-09T21:31:14.202Z,99370.94
2022-11-09T21:33:40.990Z,99367.53
2022-11-09T21:36:09.465Z,99366.69
2022-11-09T21:38:36.829Z,99379.00
2022-11-09T21:41:23.911Z,99380.13
2022-11-09T21:43:54.300Z,99383.94
2022-11-09T21:46:21.490Z,99375.47
2022-11-09T21:48:48.328Z,99381.94
2022-11-09T21:51:14.828Z,99381.66
2022-11-09T21:53:41.195Z,99385.63
2022-11-09T21:56:08.193Z,99384.78
2022-11-09T21:58:34.613Z,99388.44
2022-11-09T22:01:05.713Z,99390.28
2022-11-09T22:03:33.023Z,99394.66
2022-11-09T22:05:59.721Z,99398.34
2022-11-09T22:08:26.200Z,99403.16
2022-11-09T22:10:52.648Z,99402.84
2022-11-09T22:13:37.686Z,99404.03
2022-11-09T22:16:07.244Z,99402.75
2022-11-09T22:18:53.950Z,99409.69
2022-11-09T22:21:22.054Z,99409.38
2022-11-09T22:23:49.938Z,99401.44
2022-11-09T22:26:16.573Z,99393.41
2022-11-09T22:28:49.135Z,99397.47
2022-11-09T22:31:15.537Z,99401.72
2022-11-09T22:33:41.984Z,99403.84
2022-11-09T22:36:23.211Z,99408.66
2022-11-09T22:38:50.525Z,99410.19
2022-11-09T22:41:17.428Z,99410.06
2022-11-09T22:43:45.453Z,99409.63
2022-11-09T22:46:14.009Z,99406.53
2022-11-09T22:48:42.227Z,99407.66
2022-11-09T22:51:09.858Z,99418.66
2022-11-09T22:53:36.291Z,99418.16
2022-11-09T22:56:03.917Z,99416.84
2022-11-09T22:58:30.904Z,99427.59
2022-11-09T23:01:07.192Z,99425.03
2022-11-09T23:03:34.570Z,99428.53
2022-11-09T23:06:07.575Z,99429.41
2022-11-09T23:08:39.384Z,99436.75
2022-11-09T23:11:11.183Z,99444.47
2022-11-09T23:13:37.778Z,99439.53
2022-11-09T23:16:07.540Z,99440.72
2022-11-09T23:18:52.879Z,99442.09
2022-11-09T23:21:31.043Z,99440.72
2022-11-09T23:24:00.107Z,99453.56
2022-11-09T23:26:27.506Z,99450.44
2022-11-09T23:28:54.491Z,99454.25
2022-11-09T23:31:25.001Z,99455.63
2022-11-09T23:33:54.203Z,99463.41
2022-11-09T23:36:22.190Z,99461.75
2022-11-09T23:38:48.843Z,99473.19
2022-11-09T23:41:15.717Z,99474.44
2022-11-09T23:43:47.651Z,99470.38
2022-11-09T23:46:15.718Z,99471.81
2022-11-09T23:48:42.522Z,99472.66
2022-11-09T23:51:09.665Z,99470.97
2022-11-09T23:53:36.865Z,99485.09
2022-11-09T23:56:06.443Z,99486.34
2022-11-09T23:58:33.103Z,99488.75
